sensor_id;sensor_type;location;lat;lon;timestamp;temperature;humidity
13256;DHT22;37913;48.370;10.930;2023-05-29T00:00:47;10.50;99.90
13256;DHT22;37913;48.370;10.930;2023-05-29T00:03:14;10.40;99.90
13256;DHT22;37913;48.370;10.930;2023-05-29T00:05:41;10.40;99.90
13256;DHT22;37913;48.370;10.930;2023-05-29T00:08:07;10.50;99.90
13256;DHT22;37913;48.370;10.930;2023-05-29T00:10:34;10.50;99.90
13256;DHT22;37913;48.370;10.930;2023-05-29T00:13:03;10.60;99.90
13256;DHT22;37913;48.370;10.930;2023-05-29T00:15:33;10.60;99.90
13256;DHT22;37913;48.370;10.930;2023-05-29T00:18:00;10.60;99.90
13256;DHT22;37913;48.370;10.930;2023-05-29T00:20:27;10.60;99.90
13256;DHT22;37913;48.370;10.930;2023-05-29T00:22:54;10.70;99.90
13256;DHT22;37913;48.370;10.930;2023-05-29T00:25:22;10.50;99.90
13256;DHT22;37913;48.370;10.930;2023-05-29T00:27:49;10.30;99.90
13256;DHT22;37913;48.370;10.930;2023-05-29T00:30:17;10.30;99.90
13256;DHT22;37913;48.370;10.930;2023-05-29T00:32:45;10.20;99.90
13256;DHT22;37913;48.370;10.930;2023-05-29T00:35:13;10.10;99.90
13256;DHT22;37913;48.370;10.930;2023-05-29T00:37:40;10.00;99.90
13256;DHT22;37913;48.370;10.930;2023-05-29T00:40:08;10.00;99.90
13256;DHT22;37913;48.370;10.930;2023-05-29T00:42:35;10.00;99.90
13256;DHT22;37913;48.370;10.930;2023-05-29T00:45:03;9.90;99.90
13256;DHT22;37913;48.370;10.930;2023-05-29T00:47:30;10.00;99.90
13256;DHT22;37913;48.370;10.930;2023-05-29T00:49:58;10.00;99.90
13256;DHT22;37913;48.370;10.930;2023-05-29T00:52:26;10.00;99.90
13256;DHT22;37913;48.370;10.930;2023-05-29T00:54:54;10.00;99.90
13256;DHT22;37913;48.370;10.930;2023-05-29T00:57:21;9.90;99.90
13256;DHT22;37913;48.370;10.930;2023-05-29T00:59:48;9.80;99.90
13256;DHT22;37913;48.370;10.930;2023-05-29T01:02:18;9.80;99.90
13256;DHT22;37913;48.370;10.930;2023-05-29T01:04:47;9.80;99.90
13256;DHT22;37913;48.370;10.930;2023-05-29T01:07:15;9.70;99.90
13256;DHT22;37913;48.370;10.930;2023-05-29T01:09:42;9.70;99.90
13256;DHT22;37913;48.370;10.930;2023-05-29T01:12:19;9.80;99.90
13256;DHT22;37913;48.370;10.930;2023-05-29T01:14:58;9.70;99.90
13256;DHT22;37913;48.370;10.930;2023-05-29T01:17:39;9.70;99.90
13256;DHT22;37913;48.370;10.930;2023-05-29T01:20:18;9.70;99.90
13256;DHT22;37913;48.370;10.930;2023-05-29T01:23:07;9.60;99.90
13256;DHT22;37913;48.370;10.930;2023-05-29T01:25:46;9.60;99.90
13256;DHT22;37913;48.370;10.930;2023-05-29T01:28:20;9.50;99.90
13256;DHT22;37913;48.370;10.930;2023-05-29T01:30:47;9.50;99.90
13256;DHT22;37913;48.370;10.930;2023-05-29T01:33:16;9.50;99.90
13256;DHT22;37913;48.370;10.930;2023-05-29T01:35:43;9.50;99.90
13256;DHT22;37913;48.370;10.930;2023-05-29T01:38:10;9.50;99.90
13256;DHT22;37913;48.370;10.930;2023-05-29T01:40:37;9.50;99.90
13256;DHT22;37913;48.370;10.930;2023-05-29T01:43:05;9.50;99.90
13256;DHT22;37913;48.370;10.930;2023-05-29T01:45:34;9.50;99.90
13256;DHT22;37913;48.370;10.930;2023-05-29T01:48:02;9.60;99.90
13256;DHT22;37913;48.370;10.930;2023-05-29T01:50:29;9.50;99.90
13256;DHT22;37913;48.370;10.930;2023-05-29T01:52:56;9.30;99.90
13256;DHT22;37913;48.370;10.930;2023-05-29T01:55:23;9.30;99.90
13256;DHT22;37913;48.370;10.930;2023-05-29T01:57:50;9.20;99.90
13256;DHT22;37913;48.370;10.930;2023-05-29T02:00:18;9.40;99.90
13256;DHT22;37913;48.370;10.930;2023-05-29T02:02:49;9.50;99.90
13256;DHT22;37913;48.370;10.930;2023-05-29T02:05:16;9.60;99.90
13256;DHT22;37913;48.370;10.930;2023-05-29T02:07:43;9.60;99.90
13256;DHT22;37913;48.370;10.930;2023-05-29T02:10:11;9.60;99.90
13256;DHT22;37913;48.370;10.930;2023-05-29T02:12:38;9.50;99.90
13256;DHT22;37913;48.370;10.930;2023-05-29T02:15:05;9.40;99.90
13256;DHT22;37913;48.370;10.930;2023-05-29T02:17:33;9.20;99.90
13256;DHT22;37913;48.370;10.930;2023-05-29T02:20:01;9.10;99.90
13256;DHT22;37913;48.370;10.930;2023-05-29T02:22:28;9.10;99.90
13256;DHT22;37913;48.370;10.930;2023-05-29T02:24:55;9.10;99.90
13256;DHT22;37913;48.370;10.930;2023-05-29T02:27:22;9.00;99.90
13256;DHT22;37913;48.370;10.930;2023-05-29T02:29:49;9.00;99.90
13256;DHT22;37913;48.370;10.930;2023-05-29T02:32:16;8.90;99.90
13256;DHT22;37913;48.370;10.930;2023-05-29T02:34:43;8.90;99.90
13256;DHT22;37913;48.370;10.930;2023-05-29T02:37:11;8.80;99.90
13256;DHT22;37913;48.370;10.930;2023-05-29T02:39:38;9.00;99.90
13256;DHT22;37913;48.370;10.930;2023-05-29T02:42:05;9.10;99.90
13256;DHT22;37913;48.370;10.930;2023-05-29T02:44:32;8.90;99.90
13256;DHT22;37913;48.370;10.930;2023-05-29T02:46:59;8.90;99.90
13256;DHT22;37913;48.370;10.930;2023-05-29T02:49:26;8.90;99.90
13256;DHT22;37913;48.370;10.930;2023-05-29T02:51:53;8.80;99.90
13256;DHT22;37913;48.370;10.930;2023-05-29T02:54:23;8.80;99.90
13256;DHT22;37913;48.370;10.930;2023-05-29T02:56:51;8.70;99.90
13256;DHT22;37913;48.370;10.930;2023-05-29T02:59:18;8.80;99.90
13256;DHT22;37913;48.370;10.930;2023-05-29T03:01:45;9.00;99.90
13256;DHT22;37913;48.370;10.930;2023-05-29T03:04:13;8.90;99.90
13256;DHT22;37913;48.370;10.930;2023-05-29T03:06:40;8.90;99.90
13256;DHT22;37913;48.370;10.930;2023-05-29T03:09:07;8.90;99.90
13256;DHT22;37913;48.370;10.930;2023-05-29T03:11:35;8.90;99.90
13256;DHT22;37913;48.370;10.930;2023-05-29T03:14:03;8.90;99.90
13256;DHT22;37913;48.370;10.930;2023-05-29T03:16:30;9.00;99.90
13256;DHT22;37913;48.370;10.930;2023-05-29T03:18:57;9.00;99.90
13256;DHT22;37913;48.370;10.930;2023-05-29T03:21:24;9.00;99.90
13256;DHT22;37913;48.370;10.930;2023-05-29T03:23:51;9.10;99.90
13256;DHT22;37913;48.370;10.930;2023-05-29T03:26:18;9.20;99.90
13256;DHT22;37913;48.370;10.930;2023-05-29T03:28:46;9.20;99.90
13256;DHT22;37913;48.370;10.930;2023-05-29T03:31:13;9.20;99.90
13256;DHT22;37913;48.370;10.930;2023-05-29T03:33:41;9.10;99.90
13256;DHT22;37913;48.370;10.930;2023-05-29T03:36:08;9.10;99.90
13256;DHT22;37913;48.370;10.930;2023-05-29T03:38:36;9.20;99.90
13256;DHT22;37913;48.370;10.930;2023-05-29T03:41:03;9.20;99.90
13256;DHT22;37913;48.370;10.930;2023-05-29T03:43:30;9.20;99.90
13256;DHT22;37913;48.370;10.930;2023-05-29T03:45:58;9.20;99.90
13256;DHT22;37913;48.370;10.930;2023-05-29T03:48:25;9.20;99.90
13256;DHT22;37913;48.370;10.930;2023-05-29T03:50:52;9.30;99.90
13256;DHT22;37913;48.370;10.930;2023-05-29T03:53:19;9.30;99.90
13256;DHT22;37913;48.370;10.930;2023-05-29T03:55:46;9.30;99.90
13256;DHT22;37913;48.370;10.930;2023-05-29T03:58:13;9.40;99.90
13256;DHT22;37913;48.370;10.930;2023-05-29T04:00:41;9.60;99.90
13256;DHT22;37913;48.370;10.930;2023-05-29T04:03:10;9.70;99.90
13256;DHT22;37913;48.370;10.930;2023-05-29T04:05:36;9.80;99.90
13256;DHT22;37913;48.370;10.930;2023-05-29T04:08:04;9.90;99.90
13256;DHT22;37913;48.370;10.930;2023-05-29T04:10:31;10.00;99.90
13256;DHT22;37913;48.370;10.930;2023-05-29T04:12:59;10.10;99.90
13256;DHT22;37913;48.370;10.930;2023-05-29T04:15:26;10.40;99.90
13256;DHT22;37913;48.370;10.930;2023-05-29T04:17:53;10.50;99.90
13256;DHT22;37913;48.370;10.930;2023-05-29T04:20:22;10.70;99.90
13256;DHT22;37913;48.370;10.930;2023-05-29T04:22:48;10.80;99.90
13256;DHT22;37913;48.370;10.930;2023-05-29T04:25:16;10.90;99.90
13256;DHT22;37913;48.370;10.930;2023-05-29T04:27:43;11.00;99.90
13256;DHT22;37913;48.370;10.930;2023-05-29T04:30:15;11.20;99.90
13256;DHT22;37913;48.370;10.930;2023-05-29T04:32:42;11.30;99.90
13256;DHT22;37913;48.370;10.930;2023-05-29T04:35:09;11.40;99.90
13256;DHT22;37913;48.370;10.930;2023-05-29T04:37:37;11.50;99.90
13256;DHT22;37913;48.370;10.930;2023-05-29T04:40:07;11.60;99.90
13256;DHT22;37913;48.370;10.930;2023-05-29T04:42:35;11.80;99.90
13256;DHT22;37913;48.370;10.930;2023-05-29T04:45:02;11.90;99.90
13256;DHT22;37913;48.370;10.930;2023-05-29T04:47:30;12.10;99.90
13256;DHT22;37913;48.370;10.930;2023-05-29T04:49:58;12.30;99.90
13256;DHT22;37913;48.370;10.930;2023-05-29T04:52:25;12.50;99.90
13256;DHT22;37913;48.370;10.930;2023-05-29T04:54:54;12.70;99.90
13256;DHT22;37913;48.370;10.930;2023-05-29T04:57:22;12.90;99.90
13256;DHT22;37913;48.370;10.930;2023-05-29T04:59:49;13.10;99.90
13256;DHT22;37913;48.370;10.930;2023-05-29T05:02:16;13.20;99.90
13256;DHT22;37913;48.370;10.930;2023-05-29T05:04:42;13.30;99.90
13256;DHT22;37913;48.370;10.930;2023-05-29T05:07:11;13.40;99.90
13256;DHT22;37913;48.370;10.930;2023-05-29T05:09:38;13.60;99.90
13256;DHT22;37913;48.370;10.930;2023-05-29T05:12:07;13.80;99.90
13256;DHT22;37913;48.370;10.930;2023-05-29T05:14:34;14.00;99.90
13256;DHT22;37913;48.370;10.930;2023-05-29T05:17:01;14.10;99.90
13256;DHT22;37913;48.370;10.930;2023-05-29T05:19:28;14.30;99.90
13256;DHT22;37913;48.370;10.930;2023-05-29T05:21:56;14.40;99.90
13256;DHT22;37913;48.370;10.930;2023-05-29T05:24:23;14.60;99.90
13256;DHT22;37913;48.370;10.930;2023-05-29T05:26:50;14.80;99.90
13256;DHT22;37913;48.370;10.930;2023-05-29T05:29:18;15.00;99.90
13256;DHT22;37913;48.370;10.930;2023-05-29T05:31:45;15.00;99.90
13256;DHT22;37913;48.370;10.930;2023-05-29T05:34:12;15.10;99.90
13256;DHT22;37913;48.370;10.930;2023-05-29T05:36:39;15.10;99.90
13256;DHT22;37913;48.370;10.930;2023-05-29T05:39:06;15.20;99.90
13256;DHT22;37913;48.370;10.930;2023-05-29T05:41:33;15.40;99.90
13256;DHT22;37913;48.370;10.930;2023-05-29T05:44:00;15.70;99.90
13256;DHT22;37913;48.370;10.930;2023-05-29T05:46:28;16.10;99.90
13256;DHT22;37913;48.370;10.930;2023-05-29T05:48:55;16.30;99.90
13256;DHT22;37913;48.370;10.930;2023-05-29T05:51:23;16.60;99.90
13256;DHT22;37913;48.370;10.930;2023-05-29T05:53:50;16.80;99.90
13256;DHT22;37913;48.370;10.930;2023-05-29T05:56:17;17.00;99.90
13256;DHT22;37913;48.370;10.930;2023-05-29T05:58:44;17.40;99.90
13256;DHT22;37913;48.370;10.930;2023-05-29T06:01:11;17.80;99.90
13256;DHT22;37913;48.370;10.930;2023-05-29T06:03:39;18.10;99.90
13256;DHT22;37913;48.370;10.930;2023-05-29T06:06:06;18.30;99.90
13256;DHT22;37913;48.370;10.930;2023-05-29T06:08:34;18.60;99.90
13256;DHT22;37913;48.370;10.930;2023-05-29T06:11:01;19.00;99.90
13256;DHT22;37913;48.370;10.930;2023-05-29T06:13:28;19.50;99.90
13256;DHT22;37913;48.370;10.930;2023-05-29T06:15:55;19.80;99.90
13256;DHT22;37913;48.370;10.930;2023-05-29T06:18:22;19.70;99.90
13256;DHT22;37913;48.370;10.930;2023-05-29T06:20:50;19.80;99.90
13256;DHT22;37913;48.370;10.930;2023-05-29T06:23:17;19.80;99.90
13256;DHT22;37913;48.370;10.930;2023-05-29T06:25:44;20.10;99.90
13256;DHT22;37913;48.370;10.930;2023-05-29T06:28:11;20.60;99.90
13256;DHT22;37913;48.370;10.930;2023-05-29T06:30:39;21.00;99.90
13256;DHT22;37913;48.370;10.930;2023-05-29T06:33:06;21.50;99.00
13256;DHT22;37913;48.370;10.930;2023-05-29T06:35:33;21.60;97.90
13256;DHT22;37913;48.370;10.930;2023-05-29T06:38:01;21.50;97.80
13256;DHT22;37913;48.370;10.930;2023-05-29T06:40:28;21.70;98.30
13256;DHT22;37913;48.370;10.930;2023-05-29T06:42:55;21.80;97.10
13256;DHT22;37913;48.370;10.930;2023-05-29T06:45:22;22.10;96.30
13256;DHT22;37913;48.370;10.930;2023-05-29T06:47:49;22.80;96.00
13256;DHT22;37913;48.370;10.930;2023-05-29T06:50:16;23.20;94.90
13256;DHT22;37913;48.370;10.930;2023-05-29T06:52:43;23.80;93.70
13256;DHT22;37913;48.370;10.930;2023-05-29T06:55:11;23.80;92.60
13256;DHT22;37913;48.370;10.930;2023-05-29T06:57:38;23.90;91.70
13256;DHT22;37913;48.370;10.930;2023-05-29T07:00:06;24.50;91.60
13256;DHT22;37913;48.370;10.930;2023-05-29T07:02:35;24.60;90.30
13256;DHT22;37913;48.370;10.930;2023-05-29T07:05:02;24.20;90.20
13256;DHT22;37913;48.370;10.930;2023-05-29T07:07:29;24.50;90.10
13256;DHT22;37913;48.370;10.930;2023-05-29T07:09:56;24.10;90.50
13256;DHT22;37913;48.370;10.930;2023-05-29T07:12:24;24.80;89.40
13256;DHT22;37913;48.370;10.930;2023-05-29T07:14:51;24.60;87.50
13256;DHT22;37913;48.370;10.930;2023-05-29T07:17:18;24.60;86.90
13256;DHT22;37913;48.370;10.930;2023-05-29T07:19:45;24.50;87.00
13256;DHT22;37913;48.370;10.930;2023-05-29T07:22:12;25.70;85.70
13256;DHT22;37913;48.370;10.930;2023-05-29T07:24:39;25.40;86.60
13256;DHT22;37913;48.370;10.930;2023-05-29T07:27:06;25.20;84.60
13256;DHT22;37913;48.370;10.930;2023-05-29T07:29:35;25.60;85.20
13256;DHT22;37913;48.370;10.930;2023-05-29T07:32:02;26.40;81.60
13256;DHT22;37913;48.370;10.930;2023-05-29T07:34:29;26.40;81.10
13256;DHT22;37913;48.370;10.930;2023-05-29T07:36:57;26.70;81.50
13256;DHT22;37913;48.370;10.930;2023-05-29T07:39:26;27.10;80.30
13256;DHT22;37913;48.370;10.930;2023-05-29T07:41:53;26.90;79.50
13256;DHT22;37913;48.370;10.930;2023-05-29T07:44:21;27.40;79.30
13256;DHT22;37913;48.370;10.930;2023-05-29T07:46:49;27.50;79.60
13256;DHT22;37913;48.370;10.930;2023-05-29T07:49:16;28.20;77.60
13256;DHT22;37913;48.370;10.930;2023-05-29T07:51:49;28.70;75.70
13256;DHT22;37913;48.370;10.930;2023-05-29T07:54:20;28.50;75.30
13256;DHT22;37913;48.370;10.930;2023-05-29T07:56:48;28.70;73.50
13256;DHT22;37913;48.370;10.930;2023-05-29T07:59:15;28.80;72.80
13256;DHT22;37913;48.370;10.930;2023-05-29T08:01:42;27.60;73.70
13256;DHT22;37913;48.370;10.930;2023-05-29T08:04:11;28.20;73.90
13256;DHT22;37913;48.370;10.930;2023-05-29T08:06:39;29.10;71.60
13256;DHT22;37913;48.370;10.930;2023-05-29T08:09:08;29.20;71.90
13256;DHT22;37913;48.370;10.930;2023-05-29T08:11:35;28.70;70.80
13256;DHT22;37913;48.370;10.930;2023-05-29T08:14:02;29.20;70.80
13256;DHT22;37913;48.370;10.930;2023-05-29T08:16:29;29.10;70.60
13256;DHT22;37913;48.370;10.930;2023-05-29T08:18:57;30.60;69.50
13256;DHT22;37913;48.370;10.930;2023-05-29T08:21:25;31.00;68.20
13256;DHT22;37913;48.370;10.930;2023-05-29T08:23:52;32.00;65.00
13256;DHT22;37913;48.370;10.930;2023-05-29T08:26:19;30.70;64.80
13256;DHT22;37913;48.370;10.930;2023-05-29T08:28:46;29.60;66.50
13256;DHT22;37913;48.370;10.930;2023-05-29T08:31:15;30.00;67.40
13256;DHT22;37913;48.370;10.930;2023-05-29T08:33:42;31.30;64.10
13256;DHT22;37913;48.370;10.930;2023-05-29T08:36:09;31.20;64.50
13256;DHT22;37913;48.370;10.930;2023-05-29T08:38:37;32.40;61.50
13256;DHT22;37913;48.370;10.930;2023-05-29T08:41:04;32.60;59.40
13256;DHT22;37913;48.370;10.930;2023-05-29T08:43:34;33.00;58.60
13256;DHT22;37913;48.370;10.930;2023-05-29T08:46:02;32.70;58.10
13256;DHT22;37913;48.370;10.930;2023-05-29T08:48:31;32.40;57.70
13256;DHT22;37913;48.370;10.930;2023-05-29T08:50:58;33.10;58.00
13256;DHT22;37913;48.370;10.930;2023-05-29T08:53:29;33.20;57.20
13256;DHT22;37913;48.370;10.930;2023-05-29T08:55:58;32.20;57.50
13256;DHT22;37913;48.370;10.930;2023-05-29T08:58:26;30.80;58.00
13256;DHT22;37913;48.370;10.930;2023-05-29T09:00:53;30.90;58.90
13256;DHT22;37913;48.370;10.930;2023-05-29T09:03:20;31.70;57.70
13256;DHT22;37913;48.370;10.930;2023-05-29T09:05:48;31.20;57.80
13256;DHT22;37913;48.370;10.930;2023-05-29T09:08:15;31.50;57.30
13256;DHT22;37913;48.370;10.930;2023-05-29T09:10:43;30.80;57.60
13256;DHT22;37913;48.370;10.930;2023-05-29T09:13:12;30.70;56.50
13256;DHT22;37913;48.370;10.930;2023-05-29T09:15:40;31.30;57.10
13256;DHT22;37913;48.370;10.930;2023-05-29T09:18:08;31.20;54.90
13256;DHT22;37913;48.370;10.930;2023-05-29T09:20:35;31.10;55.60
13256;DHT22;37913;48.370;10.930;2023-05-29T09:23:04;31.00;55.50
13256;DHT22;37913;48.370;10.930;2023-05-29T09:25:33;30.50;55.60
13256;DHT22;37913;48.370;10.930;2023-05-29T09:28:02;31.40;56.00
13256;DHT22;37913;48.370;10.930;2023-05-29T09:30:37;31.00;57.10
13256;DHT22;37913;48.370;10.930;2023-05-29T09:33:05;33.00;54.90
13256;DHT22;37913;48.370;10.930;2023-05-29T09:35:34;31.60;55.60
13256;DHT22;37913;48.370;10.930;2023-05-29T09:38:01;33.00;54.10
13256;DHT22;37913;48.370;10.930;2023-05-29T09:40:32;34.40;51.60
13256;DHT22;37913;48.370;10.930;2023-05-29T09:43:03;35.60;50.60
13256;DHT22;37913;48.370;10.930;2023-05-29T09:45:38;35.00;51.90
13256;DHT22;37913;48.370;10.930;2023-05-29T09:48:06;35.00;50.90
13256;DHT22;37913;48.370;10.930;2023-05-29T09:50:34;33.70;51.40
13256;DHT22;37913;48.370;10.930;2023-05-29T09:53:01;33.90;50.90
13256;DHT22;37913;48.370;10.930;2023-05-29T09:55:29;34.80;49.90
13256;DHT22;37913;48.370;10.930;2023-05-29T09:57:59;35.60;48.50
13256;DHT22;37913;48.370;10.930;2023-05-29T10:00:26;35.40;48.50
13256;DHT22;37913;48.370;10.930;2023-05-29T10:02:54;35.10;48.70
13256;DHT22;37913;48.370;10.930;2023-05-29T10:05:21;36.30;47.80
13256;DHT22;37913;48.370;10.930;2023-05-29T10:07:50;36.40;47.70
13256;DHT22;37913;48.370;10.930;2023-05-29T10:10:19;36.20;47.90
13256;DHT22;37913;48.370;10.930;2023-05-29T10:12:48;37.00;47.80
13256;DHT22;37913;48.370;10.930;2023-05-29T10:15:16;37.60;45.60
13256;DHT22;37913;48.370;10.930;2023-05-29T10:17:50;39.60;43.90
13256;DHT22;37913;48.370;10.930;2023-05-29T10:20:20;40.70;42.90
13256;DHT22;37913;48.370;10.930;2023-05-29T10:22:51;41.70;42.00
13256;DHT22;37913;48.370;10.930;2023-05-29T10:25:20;40.40;41.20
13256;DHT22;37913;48.370;10.930;2023-05-29T10:27:48;41.30;42.20
13256;DHT22;37913;48.370;10.930;2023-05-29T10:30:25;41.80;39.10
13256;DHT22;37913;48.370;10.930;2023-05-29T10:33:04;42.90;38.50
13256;DHT22;37913;48.370;10.930;2023-05-29T10:35:41;41.50;39.90
13256;DHT22;37913;48.370;10.930;2023-05-29T10:38:12;38.50;41.60
13256;DHT22;37913;48.370;10.930;2023-05-29T10:40:42;36.70;42.80
13256;DHT22;37913;48.370;10.930;2023-05-29T10:43:30;36.00;44.40
13256;DHT22;37913;48.370;10.930;2023-05-29T10:45:58;38.10;42.70
13256;DHT22;37913;48.370;10.930;2023-05-29T10:48:39;40.20;42.60
13256;DHT22;37913;48.370;10.930;2023-05-29T10:51:08;41.60;39.60
13256;DHT22;37913;48.370;10.930;2023-05-29T10:53:36;42.50;37.20
13256;DHT22;37913;48.370;10.930;2023-05-29T10:56:09;42.20;35.80
13256;DHT22;37913;48.370;10.930;2023-05-29T10:58:41;42.20;36.80
13256;DHT22;37913;48.370;10.930;2023-05-29T11:01:08;44.60;35.50
13256;DHT22;37913;48.370;10.930;2023-05-29T11:03:35;42.60;35.90
13256;DHT22;37913;48.370;10.930;2023-05-29T11:06:04;42.50;35.50
13256;DHT22;37913;48.370;10.930;2023-05-29T11:08:36;41.90;36.70
13256;DHT22;37913;48.370;10.930;2023-05-29T11:11:12;40.10;38.40
13256;DHT22;37913;48.370;10.930;2023-05-29T11:13:39;40.50;39.90
13256;DHT22;37913;48.370;10.930;2023-05-29T11:16:12;40.20;38.60
13256;DHT22;37913;48.370;10.930;2023-05-29T11:18:44;41.10;37.70
13256;DHT22;37913;48.370;10.930;2023-05-29T11:21:31;39.20;39.00
13256;DHT22;37913;48.370;10.930;2023-05-29T11:24:02;38.10;39.00
13256;DHT22;37913;48.370;10.930;2023-05-29T11:26:30;36.70;40.30
13256;DHT22;37913;48.370;10.930;2023-05-29T11:28:59;37.00;40.00
13256;DHT22;37913;48.370;10.930;2023-05-29T11:31:27;38.50;40.10
13256;DHT22;37913;48.370;10.930;2023-05-29T11:34:00;37.20;40.80
13256;DHT22;37913;48.370;10.930;2023-05-29T11:36:30;37.60;40.30
13256;DHT22;37913;48.370;10.930;2023-05-29T11:38:58;40.10;38.90
13256;DHT22;37913;48.370;10.930;2023-05-29T11:41:26;40.80;37.40
13256;DHT22;37913;48.370;10.930;2023-05-29T11:43:57;40.10;38.40
13256;DHT22;37913;48.370;10.930;2023-05-29T11:46:25;41.60;38.30
13256;DHT22;37913;48.370;10.930;2023-05-29T11:48:53;41.20;38.00
13256;DHT22;37913;48.370;10.930;2023-05-29T11:51:20;40.00;37.90
13256;DHT22;37913;48.370;10.930;2023-05-29T11:53:48;39.70;38.40
13256;DHT22;37913;48.370;10.930;2023-05-29T11:56:18;37.40;39.60
13256;DHT22;37913;48.370;10.930;2023-05-29T11:58:47;38.20;36.90
13256;DHT22;37913;48.370;10.930;2023-05-29T12:01:16;38.60;36.40
13256;DHT22;37913;48.370;10.930;2023-05-29T12:03:44;39.80;37.30
13256;DHT22;37913;48.370;10.930;2023-05-29T12:06:12;38.20;38.30
13256;DHT22;37913;48.370;10.930;2023-05-29T12:08:39;37.00;39.50
13256;DHT22;37913;48.370;10.930;2023-05-29T12:11:06;37.40;38.90
13256;DHT22;37913;48.370;10.930;2023-05-29T12:13:33;39.50;38.20
13256;DHT22;37913;48.370;10.930;2023-05-29T12:16:04;40.80;37.30
13256;DHT22;37913;48.370;10.930;2023-05-29T12:18:31;38.90;38.10
13256;DHT22;37913;48.370;10.930;2023-05-29T12:21:00;36.10;40.20
13256;DHT22;37913;48.370;10.930;2023-05-29T12:23:28;35.00;40.90
13256;DHT22;37913;48.370;10.930;2023-05-29T12:25:55;35.60;41.20
13256;DHT22;37913;48.370;10.930;2023-05-29T12:28:22;36.50;40.90
13256;DHT22;37913;48.370;10.930;2023-05-29T12:30:50;38.20;39.30
13256;DHT22;37913;48.370;10.930;2023-05-29T12:33:29;36.40;40.30
13256;DHT22;37913;48.370;10.930;2023-05-29T12:36:01;37.10;40.00
13256;DHT22;37913;48.370;10.930;2023-05-29T12:38:28;39.70;39.40
13256;DHT22;37913;48.370;10.930;2023-05-29T12:40:55;38.20;39.70
13256;DHT22;37913;48.370;10.930;2023-05-29T12:43:22;37.60;38.70
13256;DHT22;37913;48.370;10.930;2023-05-29T12:45:54;39.20;39.00
13256;DHT22;37913;48.370;10.930;2023-05-29T12:48:27;41.60;36.70
13256;DHT22;37913;48.370;10.930;2023-05-29T12:50:54;42.10;37.50
13256;DHT22;37913;48.370;10.930;2023-05-29T12:53:28;40.90;36.40
13256;DHT22;37913;48.370;10.930;2023-05-29T12:55:55;40.50;36.80
13256;DHT22;37913;48.370;10.930;2023-05-29T12:58:22;37.80;38.60
13256;DHT22;37913;48.370;10.930;2023-05-29T13:00:52;38.90;39.00
13256;DHT22;37913;48.370;10.930;2023-05-29T13:03:21;40.10;37.00
13256;DHT22;37913;48.370;10.930;2023-05-29T13:05:50;40.50;38.50
13256;DHT22;37913;48.370;10.930;2023-05-29T13:08:18;41.80;37.10
13256;DHT22;37913;48.370;10.930;2023-05-29T13:10:45;42.30;37.60
13256;DHT22;37913;48.370;10.930;2023-05-29T13:13:11;42.00;36.00
13256;DHT22;37913;48.370;10.930;2023-05-29T13:15:38;40.10;37.90
13256;DHT22;37913;48.370;10.930;2023-05-29T13:18:06;40.10;36.50
13256;DHT22;37913;48.370;10.930;2023-05-29T13:20:33;41.70;35.90
13256;DHT22;37913;48.370;10.930;2023-05-29T13:23:01;42.80;35.50
13256;DHT22;37913;48.370;10.930;2023-05-29T13:25:29;39.70;36.50
13256;DHT22;37913;48.370;10.930;2023-05-29T13:27:56;36.70;39.30
13256;DHT22;37913;48.370;10.930;2023-05-29T13:30:23;36.60;39.70
13256;DHT22;37913;48.370;10.930;2023-05-29T13:32:50;37.20;39.00
13256;DHT22;37913;48.370;10.930;2023-05-29T13:35:18;36.70;40.00
13256;DHT22;37913;48.370;10.930;2023-05-29T13:37:45;37.20;38.80
13256;DHT22;37913;48.370;10.930;2023-05-29T13:40:13;35.10;41.00
13256;DHT22;37913;48.370;10.930;2023-05-29T13:42:40;34.60;41.60
13256;DHT22;37913;48.370;10.930;2023-05-29T13:45:08;33.50;42.60
13256;DHT22;37913;48.370;10.930;2023-05-29T13:47:35;32.70;43.60
13256;DHT22;37913;48.370;10.930;2023-05-29T13:50:03;31.40;45.00
13256;DHT22;37913;48.370;10.930;2023-05-29T13:52:30;30.80;46.90
13256;DHT22;37913;48.370;10.930;2023-05-29T13:54:57;29.60;45.70
13256;DHT22;37913;48.370;10.930;2023-05-29T13:57:28;28.70;47.70
13256;DHT22;37913;48.370;10.930;2023-05-29T13:59:56;28.70;48.80
13256;DHT22;37913;48.370;10.930;2023-05-29T14:02:23;27.80;49.10
13256;DHT22;37913;48.370;10.930;2023-05-29T14:04:51;26.30;50.00
13256;DHT22;37913;48.370;10.930;2023-05-29T14:07:17;25.60;52.70
13256;DHT22;37913;48.370;10.930;2023-05-29T14:09:44;25.40;53.20
13256;DHT22;37913;48.370;10.930;2023-05-29T14:12:11;25.90;54.40
13256;DHT22;37913;48.370;10.930;2023-05-29T14:14:39;26.00;53.10
13256;DHT22;37913;48.370;10.930;2023-05-29T14:17:07;25.00;53.10
13256;DHT22;37913;48.370;10.930;2023-05-29T14:19:34;24.60;53.50
13256;DHT22;37913;48.370;10.930;2023-05-29T14:22:01;24.70;54.40
13256;DHT22;37913;48.370;10.930;2023-05-29T14:24:28;24.70;54.70
13256;DHT22;37913;48.370;10.930;2023-05-29T14:26:56;24.60;53.40
13256;DHT22;37913;48.370;10.930;2023-05-29T14:29:23;24.50;54.80
13256;DHT22;37913;48.370;10.930;2023-05-29T14:31:53;24.70;54.30
13256;DHT22;37913;48.370;10.930;2023-05-29T14:34:20;24.10;53.90
13256;DHT22;37913;48.370;10.930;2023-05-29T14:36:47;24.10;56.20
13256;DHT22;37913;48.370;10.930;2023-05-29T14:39:14;24.40;55.90
13256;DHT22;37913;48.370;10.930;2023-05-29T14:41:41;24.70;54.70
13256;DHT22;37913;48.370;10.930;2023-05-29T14:44:09;24.90;56.10
13256;DHT22;37913;48.370;10.930;2023-05-29T14:46:37;24.90;53.20
13256;DHT22;37913;48.370;10.930;2023-05-29T14:49:06;24.90;54.10
13256;DHT22;37913;48.370;10.930;2023-05-29T14:51:33;24.80;53.50
13256;DHT22;37913;48.370;10.930;2023-05-29T14:54:01;24.90;53.30
13256;DHT22;37913;48.370;10.930;2023-05-29T14:56:28;24.90;53.30
13256;DHT22;37913;48.370;10.930;2023-05-29T14:58:55;24.80;53.70
13256;DHT22;37913;48.370;10.930;2023-05-29T15:01:22;24.40;53.10
13256;DHT22;37913;48.370;10.930;2023-05-29T15:03:49;24.20;53.90
13256;DHT22;37913;48.370;10.930;2023-05-29T15:06:18;24.30;54.00
13256;DHT22;37913;48.370;10.930;2023-05-29T15:08:45;24.30;55.10
13256;DHT22;37913;48.370;10.930;2023-05-29T15:11:12;24.50;54.10
13256;DHT22;37913;48.370;10.930;2023-05-29T15:13:41;24.60;54.90
13256;DHT22;37913;48.370;10.930;2023-05-29T15:16:08;24.80;54.10
13256;DHT22;37913;48.370;10.930;2023-05-29T15:18:35;24.90;54.30
13256;DHT22;37913;48.370;10.930;2023-05-29T15:21:02;25.00;52.80
13256;DHT22;37913;48.370;10.930;2023-05-29T15:23:31;25.10;53.80
13256;DHT22;37913;48.370;10.930;2023-05-29T15:25:59;25.10;54.20